sensor_id;sensor_type;location;lat;lon;timestamp;P1;durP1;ratioP1;P2;durP2;ratioP2
34767;SDS011;21755;43.608;1.236;2024-02-15T00:01:05;3.45;;;1.25;;
34767;SDS011;21755;43.608;1.236;2024-02-15T00:03:31;2.90;;;1.42;;
34767;SDS011;21755;43.608;1.236;2024-02-15T00:05:58;5.20;;;1.67;;
34767;SDS011;21755;43.608;1.236;2024-02-15T00:08:23;4.78;;;1.52;;
34767;SDS011;21755;43.608;1.236;2024-02-15T00:10:52;5.57;;;1.73;;
34767;SDS011;21755;43.608;1.236;2024-02-15T00:13:18;2.78;;;1.60;;
34767;SDS011;21755;43.608;1.236;2024-02-15T00:15:44;2.30;;;1.38;;
34767;SDS011;21755;43.608;1.236;2024-02-15T00:18:14;2.97;;;1.60;;
34767;SDS011;21755;43.608;1.236;2024-02-15T00:20:40;2.15;;;1.48;;
34767;SDS011;21755;43.608;1.236;2024-02-15T00:23:06;11.52;;;1.63;;
34767;SDS011;21755;43.608;1.236;2024-02-15T00:25:32;6.38;;;1.63;;
34767;SDS011;21755;43.608;1.236;2024-02-15T00:27:58;2.80;;;1.38;;
34767;SDS011;21755;43.608;1.236;2024-02-15T00:30:27;4.35;;;1.60;;
34767;SDS011;21755;43.608;1.236;2024-02-15T00:32:53;5.03;;;1.92;;
34767;SDS011;21755;43.608;1.236;2024-02-15T00:35:20;2.60;;;1.15;;
34767;SDS011;21755;43.608;1.236;2024-02-15T00:37:46;4.55;;;1.60;;
34767;SDS011;21755;43.608;1.236;2024-02-15T00:40:12;5.40;;;1.23;;
34767;SDS011;21755;43.608;1.236;2024-02-15T00:42:38;3.72;;;1.27;;
34767;SDS011;21755;43.608;1.236;2024-02-15T00:45:04;2.92;;;1.70;;
34767;SDS011;21755;43.608;1.236;2024-02-15T00:47:30;5.03;;;1.45;;
34767;SDS011;21755;43.608;1.236;2024-02-15T00:49:57;3.60;;;1.60;;
34767;SDS011;21755;43.608;1.236;2024-02-15T00:52:23;2.67;;;1.30;;
34767;SDS011;21755;43.608;1.236;2024-02-15T00:54:50;2.90;;;1.38;;
34767;SDS011;21755;43.608;1.236;2024-02-15T00:57:16;2.92;;;1.40;;
34767;SDS011;21755;43.608;1.236;2024-02-15T00:59:42;3.05;;;1.55;;
34767;SDS011;21755;43.608;1.236;2024-02-15T01:02:09;2.60;;;1.40;;
34767;SDS011;21755;43.608;1.236;2024-02-15T01:04:34;2.80;;;1.75;;
34767;SDS011;21755;43.608;1.236;2024-02-15T01:07:00;1.55;;;1.08;;
34767;SDS011;21755;43.608;1.236;2024-02-15T01:09:26;5.25;;;1.80;;
34767;SDS011;21755;43.608;1.236;2024-02-15T01:11:52;2.40;;;1.30;;
34767;SDS011;21755;43.608;1.236;2024-02-15T01:14:18;2.40;;;1.55;;
34767;SDS011;21755;43.608;1.236;2024-02-15T01:16:44;2.38;;;1.58;;
34767;SDS011;21755;43.608;1.236;2024-02-15T01:19:11;4.43;;;1.63;;
34767;SDS011;21755;43.608;1.236;2024-02-15T01:21:37;4.03;;;1.58;;
34767;SDS011;21755;43.608;1.236;2024-02-15T01:24:03;3.05;;;1.55;;
34767;SDS011;21755;43.608;1.236;2024-02-15T01:26:31;6.35;;;1.77;;
34767;SDS011;21755;43.608;1.236;2024-02-15T01:28:57;3.15;;;1.98;;
34767;SDS011;21755;43.608;1.236;2024-02-15T01:31:23;5.05;;;1.90;;
34767;SDS011;21755;43.608;1.236;2024-02-15T01:33:49;4.78;;;1.83;;
34767;SDS011;21755;43.608;1.236;2024-02-15T01:36:15;5.63;;;1.65;;
34767;SDS011;21755;43.608;1.236;2024-02-15T01:38:42;4.97;;;1.90;;
34767;SDS011;21755;43.608;1.236;2024-02-15T01:41:09;4.97;;;2.00;;
34767;SDS011;21755;43.608;1.236;2024-02-15T01:43:35;3.58;;;2.00;;
34767;SDS011;21755;43.608;1.236;2024-02-15T01:46:02;4.00;;;2.10;;
34767;SDS011;21755;43.608;1.236;2024-02-15T01:48:33;3.20;;;1.92;;
34767;SDS011;21755;43.608;1.236;2024-02-15T01:51:01;5.28;;;2.13;;
34767;SDS011;21755;43.608;1.236;2024-02-15T01:53:28;4.72;;;2.17;;
34767;SDS011;21755;43.608;1.236;2024-02-15T01:55:55;4.78;;;2.50;;
34767;SDS011;21755;43.608;1.236;2024-02-15T01:58:25;4.03;;;2.00;;
34767;SDS011;21755;43.608;1.236;2024-02-15T02:00:53;7.57;;;2.17;;
34767;SDS011;21755;43.608;1.236;2024-02-15T02:03:20;3.28;;;2.05;;
34767;SDS011;21755;43.608;1.236;2024-02-15T02:05:46;3.35;;;2.30;;
34767;SDS011;21755;43.608;1.236;2024-02-15T02:08:12;5.32;;;2.22;;
34767;SDS011;21755;43.608;1.236;2024-02-15T02:10:38;8.93;;;2.03;;
34767;SDS011;21755;43.608;1.236;2024-02-15T02:13:05;2.97;;;1.80;;
34767;SDS011;21755;43.608;1.236;2024-02-15T02:15:31;3.50;;;2.15;;
34767;SDS011;21755;43.608;1.236;2024-02-15T02:17:57;7.35;;;2.72;;
34767;SDS011;21755;43.608;1.236;2024-02-15T02:20:27;8.50;;;2.47;;
34767;SDS011;21755;43.608;1.236;2024-02-15T02:22:53;3.60;;;2.00;;
34767;SDS011;21755;43.608;1.236;2024-02-15T02:25:21;3.30;;;2.03;;
34767;SDS011;21755;43.608;1.236;2024-02-15T02:27:51;7.90;;;2.17;;
34767;SDS011;21755;43.608;1.236;2024-02-15T02:30:18;5.00;;;2.40;;
34767;SDS011;21755;43.608;1.236;2024-02-15T02:32:47;5.90;;;2.08;;
34767;SDS011;21755;43.608;1.236;2024-02-15T02:35:13;5.50;;;2.90;;
34767;SDS011;21755;43.608;1.236;2024-02-15T02:37:41;7.30;;;2.33;;
34767;SDS011;21755;43.608;1.236;2024-02-15T02:40:08;8.65;;;2.65;;
34767;SDS011;21755;43.608;1.236;2024-02-15T02:42:53;7.00;;;2.45;;
34767;SDS011;21755;43.608;1.236;2024-02-15T02:45:26;3.38;;;2.35;;
34767;SDS011;21755;43.608;1.236;2024-02-15T02:47:52;4.97;;;2.60;;
34767;SDS011;21755;43.608;1.236;2024-02-15T02:50:19;4.65;;;2.63;;
34767;SDS011;21755;43.608;1.236;2024-02-15T02:52:46;6.38;;;2.90;;
34767;SDS011;21755;43.608;1.236;2024-02-15T02:55:13;7.32;;;3.38;;
34767;SDS011;21755;43.608;1.236;2024-02-15T02:57:39;8.07;;;3.00;;
34767;SDS011;21755;43.608;1.236;2024-02-15T03:00:10;6.32;;;2.92;;
34767;SDS011;21755;43.608;1.236;2024-02-15T03:02:42;7.85;;;2.90;;
34767;SDS011;21755;43.608;1.236;2024-02-15T03:05:09;5.97;;;2.55;;
34767;SDS011;21755;43.608;1.236;2024-02-15T03:07:36;9.75;;;3.05;;
34767;SDS011;21755;43.608;1.236;2024-02-15T03:10:03;3.50;;;2.72;;
34767;SDS011;21755;43.608;1.236;2024-02-15T03:12:30;6.75;;;2.67;;
34767;SDS011;21755;43.608;1.236;2024-02-15T03:14:56;5.47;;;2.80;;
34767;SDS011;21755;43.608;1.236;2024-02-15T03:17:25;5.82;;;2.53;;
34767;SDS011;21755;43.608;1.236;2024-02-15T03:19:51;6.32;;;2.30;;
34767;SDS011;21755;43.608;1.236;2024-02-15T03:22:17;8.40;;;2.38;;
34767;SDS011;21755;43.608;1.236;2024-02-15T03:24:43;9.88;;;3.38;;
34767;SDS011;21755;43.608;1.236;2024-02-15T03:27:09;4.10;;;2.78;;
34767;SDS011;21755;43.608;1.236;2024-02-15T03:29:40;5.28;;;2.63;;
34767;SDS011;21755;43.608;1.236;2024-02-15T03:32:06;5.93;;;3.15;;
34767;SDS011;21755;43.608;1.236;2024-02-15T03:34:32;12.38;;;3.42;;
34767;SDS011;21755;43.608;1.236;2024-02-15T03:36:58;6.10;;;3.17;;
34767;SDS011;21755;43.608;1.236;2024-02-15T03:39:24;6.82;;;3.60;;
34767;SDS011;21755;43.608;1.236;2024-02-15T03:41:50;8.38;;;3.05;;
34767;SDS011;21755;43.608;1.236;2024-02-15T03:44:17;7.32;;;2.95;;
34767;SDS011;21755;43.608;1.236;2024-02-15T03:46:44;10.60;;;3.38;;
34767;SDS011;21755;43.608;1.236;2024-02-15T03:49:16;7.07;;;3.38;;
34767;SDS011;21755;43.608;1.236;2024-02-15T03:51:45;7.35;;;3.47;;
34767;SDS011;21755;43.608;1.236;2024-02-15T03:54:11;7.13;;;3.92;;
34767;SDS011;21755;43.608;1.236;2024-02-15T03:56:47;9.38;;;4.18;;
34767;SDS011;21755;43.608;1.236;2024-02-15T03:59:20;8.93;;;4.03;;
34767;SDS011;21755;43.608;1.236;2024-02-15T04:01:52;11.75;;;3.92;;
34767;SDS011;21755;43.608;1.236;2024-02-15T04:04:19;5.55;;;3.70;;
34767;SDS011;21755;43.608;1.236;2024-02-15T04:06:47;7.22;;;3.33;;
34767;SDS011;21755;43.608;1.236;2024-02-15T04:09:16;7.00;;;4.20;;
34767;SDS011;21755;43.608;1.236;2024-02-15T04:11:43;12.57;;;5.03;;
34767;SDS011;21755;43.608;1.236;2024-02-15T04:14:12;7.55;;;3.95;;
34767;SDS011;21755;43.608;1.236;2024-02-15T04:16:38;11.48;;;4.93;;
34767;SDS011;21755;43.608;1.236;2024-02-15T04:19:05;8.35;;;4.45;;
34767;SDS011;21755;43.608;1.236;2024-02-15T04:21:30;9.68;;;4.90;;
34767;SDS011;21755;43.608;1.236;2024-02-15T04:23:56;7.75;;;4.70;;
34767;SDS011;21755;43.608;1.236;2024-02-15T04:26:22;7.20;;;4.35;;
34767;SDS011;21755;43.608;1.236;2024-02-15T04:28:52;11.73;;;4.55;;
34767;SDS011;21755;43.608;1.236;2024-02-15T04:31:18;11.13;;;5.22;;
34767;SDS011;21755;43.608;1.236;2024-02-15T04:33:51;9.10;;;5.40;;
34767;SDS011;21755;43.608;1.236;2024-02-15T04:36:18;10.98;;;5.22;;
34767;SDS011;21755;43.608;1.236;2024-02-15T04:38:49;10.23;;;5.32;;
34767;SDS011;21755;43.608;1.236;2024-02-15T04:41:15;8.75;;;5.20;;
34767;SDS011;21755;43.608;1.236;2024-02-15T04:43:47;15.07;;;5.25;;
34767;SDS011;21755;43.608;1.236;2024-02-15T04:46:14;10.82;;;4.82;;
34767;SDS011;21755;43.608;1.236;2024-02-15T04:48:40;7.25;;;4.55;;
34767;SDS011;21755;43.608;1.236;2024-02-15T04:51:09;7.03;;;4.07;;
34767;SDS011;21755;43.608;1.236;2024-02-15T04:53:36;11.02;;;4.25;;
34767;SDS011;21755;43.608;1.236;2024-02-15T04:56:04;4.82;;;3.40;;
34767;SDS011;21755;43.608;1.236;2024-02-15T04:58:36;7.38;;;3.63;;
34767;SDS011;21755;43.608;1.236;2024-02-15T05:01:03;5.32;;;3.85;;
34767;SDS011;21755;43.608;1.236;2024-02-15T05:03:32;7.10;;;3.70;;
34767;SDS011;21755;43.608;1.236;2024-02-15T05:06:00;8.20;;;3.20;;
34767;SDS011;21755;43.608;1.236;2024-02-15T05:08:29;6.28;;;3.45;;
34767;SDS011;21755;43.608;1.236;2024-02-15T05:10:57;11.10;;;3.78;;
34767;SDS011;21755;43.608;1.236;2024-02-15T05:13:26;6.88;;;3.10;;
34767;SDS011;21755;43.608;1.236;2024-02-15T05:15:52;9.00;;;3.67;;
34767;SDS011;21755;43.608;1.236;2024-02-15T05:18:18;6.57;;;3.95;;
34767;SDS011;21755;43.608;1.236;2024-02-15T05:20:43;6.47;;;2.83;;
34767;SDS011;21755;43.608;1.236;2024-02-15T05:23:09;3.85;;;2.63;;
34767;SDS011;21755;43.608;1.236;2024-02-15T05:25:37;8.73;;;2.88;;
34767;SDS011;21755;43.608;1.236;2024-02-15T05:28:03;7.60;;;3.00;;
34767;SDS011;21755;43.608;1.236;2024-02-15T05:30:31;7.47;;;3.38;;
34767;SDS011;21755;43.608;1.236;2024-02-15T05:32:58;3.75;;;2.58;;
34767;SDS011;21755;43.608;1.236;2024-02-15T05:35:25;7.05;;;3.00;;
34767;SDS011;21755;43.608;1.236;2024-02-15T05:37:53;4.63;;;2.72;;
34767;SDS011;21755;43.608;1.236;2024-02-15T05:40:21;5.90;;;2.95;;
34767;SDS011;21755;43.608;1.236;2024-02-15T05:42:47;8.07;;;2.83;;
34767;SDS011;21755;43.608;1.236;2024-02-15T05:47:52;7.43;;;3.08;;
34767;SDS011;21755;43.608;1.236;2024-02-15T05:50:19;5.53;;;3.15;;
34767;SDS011;21755;43.608;1.236;2024-02-15T05:52:48;3.95;;;2.63;;
34767;SDS011;21755;43.608;1.236;2024-02-15T05:55:19;4.55;;;2.92;;
34767;SDS011;21755;43.608;1.236;2024-02-15T05:57:46;4.15;;;2.80;;
34767;SDS011;21755;43.608;1.236;2024-02-15T06:00:14;3.97;;;2.55;;
34767;SDS011;21755;43.608;1.236;2024-02-15T06:02:40;7.18;;;2.65;;
34767;SDS011;21755;43.608;1.236;2024-02-15T06:05:06;3.55;;;2.70;;
34767;SDS011;21755;43.608;1.236;2024-02-15T06:07:35;4.78;;;2.72;;
34767;SDS011;21755;43.608;1.236;2024-02-15T06:10:01;4.90;;;2.55;;
34767;SDS011;21755;43.608;1.236;2024-02-15T06:12:31;8.75;;;3.60;;
34767;SDS011;21755;43.608;1.236;2024-02-15T06:14:57;9.55;;;4.13;;
34767;SDS011;21755;43.608;1.236;2024-02-15T06:17:22;6.40;;;3.17;;
34767;SDS011;21755;43.608;1.236;2024-02-15T06:19:49;7.85;;;3.67;;
34767;SDS011;21755;43.608;1.236;2024-02-15T06:22:15;10.18;;;3.97;;
34767;SDS011;21755;43.608;1.236;2024-02-15T06:24:41;6.50;;;3.60;;
34767;SDS011;21755;43.608;1.236;2024-02-15T06:27:07;6.30;;;3.67;;
34767;SDS011;21755;43.608;1.236;2024-02-15T06:29:33;7.43;;;3.53;;
34767;SDS011;21755;43.608;1.236;2024-02-15T06:32:17;7.20;;;3.92;;
34767;SDS011;21755;43.608;1.236;2024-02-15T06:35:01;7.65;;;3.58;;
34767;SDS011;21755;43.608;1.236;2024-02-15T06:37:45;6.18;;;3.67;;
34767;SDS011;21755;43.608;1.236;2024-02-15T06:40:29;5.25;;;3.47;;
34767;SDS011;21755;43.608;1.236;2024-02-15T06:42:56;5.82;;;3.25;;
34767;SDS011;21755;43.608;1.236;2024-02-15T06:45:21;6.97;;;3.40;;
34767;SDS011;21755;43.608;1.236;2024-02-15T06:47:48;7.20;;;3.83;;
34767;SDS011;21755;43.608;1.236;2024-02-15T06:50:14;6.78;;;3.97;;
34767;SDS011;21755;43.608;1.236;2024-02-15T06:52:42;7.13;;;4.20;;
34767;SDS011;21755;43.608;1.236;2024-02-15T06:55:09;6.68;;;3.50;;
34767;SDS011;21755;43.608;1.236;2024-02-15T06:57:37;7.15;;;4.25;;
34767;SDS011;21755;43.608;1.236;2024-02-15T07:00:07;8.90;;;3.63;;
34767;SDS011;21755;43.608;1.236;2024-02-15T07:02:35;9.25;;;4.20;;
34767;SDS011;21755;43.608;1.236;2024-02-15T07:05:01;5.82;;;3.40;;
34767;SDS011;21755;43.608;1.236;2024-02-15T07:07:31;5.80;;;3.53;;
34767;SDS011;21755;43.608;1.236;2024-02-15T07:09:57;6.63;;;3.63;;
34767;SDS011;21755;43.608;1.236;2024-02-15T07:12:23;4.70;;;2.63;;
34767;SDS011;21755;43.608;1.236;2024-02-15T07:14:50;4.15;;;2.58;;
34767;SDS011;21755;43.608;1.236;2024-02-15T07:17:16;5.38;;;2.63;;
34767;SDS011;21755;43.608;1.236;2024-02-15T07:19:45;4.47;;;2.83;;
34767;SDS011;21755;43.608;1.236;2024-02-15T07:22:14;5.15;;;3.38;;
34767;SDS011;21755;43.608;1.236;2024-02-15T07:24:41;5.30;;;3.00;;
34767;SDS011;21755;43.608;1.236;2024-02-15T07:27:07;7.65;;;3.90;;
34767;SDS011;21755;43.608;1.236;2024-02-15T07:29:35;6.05;;;3.10;;
34767;SDS011;21755;43.608;1.236;2024-02-15T07:32:05;8.30;;;3.67;;
34767;SDS011;21755;43.608;1.236;2024-02-15T07:34:33;8.15;;;4.18;;
34767;SDS011;21755;43.608;1.236;2024-02-15T07:36:59;8.77;;;4.50;;
34767;SDS011;21755;43.608;1.236;2024-02-15T07:39:27;10.07;;;4.75;;
34767;SDS011;21755;43.608;1.236;2024-02-15T07:41:55;6.80;;;4.40;;
34767;SDS011;21755;43.608;1.236;2024-02-15T07:44:23;7.38;;;3.97;;
34767;SDS011;21755;43.608;1.236;2024-02-15T07:46:50;8.73;;;4.15;;
34767;SDS011;21755;43.608;1.236;2024-02-15T07:49:16;7.93;;;4.00;;
34767;SDS011;21755;43.608;1.236;2024-02-15T07:51:45;6.25;;;4.10;;
34767;SDS011;21755;43.608;1.236;2024-02-15T07:54:17;5.10;;;4.05;;
34767;SDS011;21755;43.608;1.236;2024-02-15T07:56:46;6.20;;;3.92;;
34767;SDS011;21755;43.608;1.236;2024-02-15T07:59:15;5.38;;;3.60;;
34767;SDS011;21755;43.608;1.236;2024-02-15T08:01:44;7.03;;;3.65;;
34767;SDS011;21755;43.608;1.236;2024-02-15T08:04:18;5.30;;;3.25;;
34767;SDS011;21755;43.608;1.236;2024-02-15T08:06:45;4.70;;;3.60;;
34767;SDS011;21755;43.608;1.236;2024-02-15T08:09:11;6.60;;;3.85;;
34767;SDS011;21755;43.608;1.236;2024-02-15T08:11:39;7.68;;;3.75;;
34767;SDS011;21755;43.608;1.236;2024-02-15T08:14:06;8.00;;;3.63;;
34767;SDS011;21755;43.608;1.236;2024-02-15T08:16:35;7.63;;;3.25;;
34767;SDS011;21755;43.608;1.236;2024-02-15T08:19:01;8.13;;;3.40;;
34767;SDS011;21755;43.608;1.236;2024-02-15T08:21:29;6.30;;;3.30;;
34767;SDS011;21755;43.608;1.236;2024-02-15T08:23:58;7.20;;;3.20;;
34767;SDS011;21755;43.608;1.236;2024-02-15T08:26:37;7.85;;;3.38;;
34767;SDS011;21755;43.608;1.236;2024-02-15T08:29:04;6.80;;;3.42;;
34767;SDS011;21755;43.608;1.236;2024-02-15T08:31:34;8.45;;;3.30;;
34767;SDS011;21755;43.608;1.236;2024-02-15T08:34:03;5.97;;;3.47;;
34767;SDS011;21755;43.608;1.236;2024-02-15T08:36:31;7.43;;;4.07;;
34767;SDS011;21755;43.608;1.236;2024-02-15T08:38:57;6.25;;;3.75;;
34767;SDS011;21755;43.608;1.236;2024-02-15T08:41:23;6.75;;;3.85;;
34767;SDS011;21755;43.608;1.236;2024-02-15T08:43:52;6.40;;;3.60;;
34767;SDS011;21755;43.608;1.236;2024-02-15T08:46:18;7.05;;;3.63;;
34767;SDS011;21755;43.608;1.236;2024-02-15T08:48:47;6.55;;;3.85;;
34767;SDS011;21755;43.608;1.236;2024-02-15T08:51:13;7.43;;;3.45;;
34767;SDS011;21755;43.608;1.236;2024-02-15T08:53:39;5.32;;;3.47;;
34767;SDS011;21755;43.608;1.236;2024-02-15T08:56:05;4.85;;;3.00;;
34767;SDS011;21755;43.608;1.236;2024-02-15T08:58:31;4.32;;;3.30;;
34767;SDS011;21755;43.608;1.236;2024-02-15T09:00:57;6.80;;;3.83;;
34767;SDS011;21755;43.608;1.236;2024-02-15T09:03:23;5.85;;;3.13;;
34767;SDS011;21755;43.608;1.236;2024-02-15T09:05:50;4.95;;;2.90;;
34767;SDS011;21755;43.608;1.236;2024-02-15T09:08:16;4.90;;;3.22;;
34767;SDS011;21755;43.608;1.236;2024-02-15T09:10:46;4.75;;;3.28;;
34767;SDS011;21755;43.608;1.236;2024-02-15T09:13:14;5.70;;;3.03;;
34767;SDS011;21755;43.608;1.236;2024-02-15T09:15:40;10.13;;;3.10;;
34767;SDS011;21755;43.608;1.236;2024-02-15T09:18:10;5.95;;;3.08;;
34767;SDS011;21755;43.608;1.236;2024-02-15T09:20:36;4.43;;;2.95;;
34767;SDS011;21755;43.608;1.236;2024-02-15T09:23:03;3.47;;;2.63;;
34767;SDS011;21755;43.608;1.236;2024-02-15T09:25:34;5.78;;;3.30;;
34767;SDS011;21755;43.608;1.236;2024-02-15T09:28:03;5.72;;;3.00;;
34767;SDS011;21755;43.608;1.236;2024-02-15T09:30:29;9.90;;;2.97;;
34767;SDS011;21755;43.608;1.236;2024-02-15T09:32:57;3.70;;;3.22;;
34767;SDS011;21755;43.608;1.236;2024-02-15T09:35:23;4.57;;;3.38;;
34767;SDS011;21755;43.608;1.236;2024-02-15T09:37:49;4.95;;;3.03;;
34767;SDS011;21755;43.608;1.236;2024-02-15T09:40:15;5.88;;;3.25;;
34767;SDS011;21755;43.608;1.236;2024-02-15T09:42:43;3.70;;;2.92;;
34767;SDS011;21755;43.608;1.236;2024-02-15T09:45:10;3.42;;;2.50;;
34767;SDS011;21755;43.608;1.236;2024-02-15T09:47:38;7.03;;;3.33;;
34767;SDS011;21755;43.608;1.236;2024-02-15T09:50:07;6.00;;;2.80;;
34767;SDS011;21755;43.608;1.236;2024-02-15T09:52:36;6.65;;;3.30;;
34767;SDS011;21755;43.608;1.236;2024-02-15T09:55:05;4.85;;;2.78;;
34767;SDS011;21755;43.608;1.236;2024-02-15T09:57:38;6.65;;;2.92;;
34767;SDS011;21755;43.608;1.236;2024-02-15T10:00:04;8.57;;;3.83;;
34767;SDS011;21755;43.608;1.236;2024-02-15T10:02:36;5.63;;;3.60;;
34767;SDS011;21755;43.608;1.236;2024-02-15T10:05:05;7.95;;;3.72;;
34767;SDS011;21755;43.608;1.236;2024-02-15T10:07:31;5.30;;;3.03;;
34767;SDS011;21755;43.608;1.236;2024-02-15T10:09:57;6.32;;;3.55;;
34767;SDS011;21755;43.608;1.236;2024-02-15T10:12:43;5.53;;;3.38;;
34767;SDS011;21755;43.608;1.236;2024-02-15T10:15:10;5.07;;;3.50;;
34767;SDS011;21755;43.608;1.236;2024-02-15T10:17:35;9.43;;;4.03;;
34767;SDS011;21755;43.608;1.236;2024-02-15T10:20:05;8.73;;;4.10;;
34767;SDS011;21755;43.608;1.236;2024-02-15T10:22:32;8.95;;;3.38;;
34767;SDS011;21755;43.608;1.236;2024-02-15T10:25:11;8.27;;;3.72;;
34767;SDS011;21755;43.608;1.236;2024-02-15T10:27:38;7.97;;;4.55;;
34767;SDS011;21755;43.608;1.236;2024-02-15T10:32:45;10.77;;;4.47;;
34767;SDS011;21755;43.608;1.236;2024-02-15T10:35:22;6.43;;;4.10;;
34767;SDS011;21755;43.608;1.236;2024-02-15T10:37:48;7.22;;;4.18;;
34767;SDS011;21755;43.608;1.236;2024-02-15T10:40:18;6.82;;;4.00;;
34767;SDS011;21755;43.608;1.236;2024-02-15T10:42:46;6.95;;;4.20;;
34767;SDS011;21755;43.608;1.236;2024-02-15T10:45:12;6.20;;;4.53;;
34767;SDS011;21755;43.608;1.236;2024-02-15T10:47:43;8.23;;;4.35;;
34767;SDS011;21755;43.608;1.236;2024-02-15T10:50:13;9.30;;;3.85;;
34767;SDS011;21755;43.608;1.236;2024-02-15T10:52:43;5.45;;;3.63;;
34767;SDS011;21755;43.608;1.236;2024-02-15T10:55:13;4.97;;;3.42;;
34767;SDS011;21755;43.608;1.236;2024-02-15T10:57:46;4.57;;;3.80;;
34767;SDS011;21755;43.608;1.236;2024-02-15T11:00:16;5.75;;;3.17;;
34767;SDS011;21755;43.608;1.236;2024-02-15T11:03:02;4.82;;;3.17;;
34767;SDS011;21755;43.608;1.236;2024-02-15T11:05:32;4.90;;;2.85;;
34767;SDS011;21755;43.608;1.236;2024-02-15T11:08:06;5.32;;;2.58;;
34767;SDS011;21755;43.608;1.236;2024-02-15T11:10:36;3.13;;;2.60;;
34767;SDS011;21755;43.608;1.236;2024-02-15T11:13:08;4.28;;;2.42;;
34767;SDS011;21755;43.608;1.236;2024-02-15T11:18:01;4.82;;;2.78;;
34767;SDS011;21755;43.608;1.236;2024-02-15T11:22:59;5.45;;;3.00;;
34767;SDS011;21755;43.608;1.236;2024-02-15T11:25:38;5.53;;;2.65;;
34767;SDS011;21755;43.608;1.236;2024-02-15T11:30:54;3.53;;;2.03;;
34767;SDS011;21755;43.608;1.236;2024-02-15T11:36:09;3.55;;;1.73;;
34767;SDS011;21755;43.608;1.236;2024-02-15T11:38:39;3.83;;;2.30;;
34767;SDS011;21755;43.608;1.236;2024-02-15T11:41:06;5.18;;;2.03;;
34767;SDS011;21755;43.608;1.236;2024-02-15T11:43:45;3.33;;;2.25;;
34767;SDS011;21755;43.608;1.236;2024-02-15T11:46:19;5.60;;;2.25;;
34767;SDS011;21755;43.608;1.236;2024-02-15T11:48:46;4.93;;;2.58;;
34767;SDS011;21755;43.608;1.236;2024-02-15T11:51:28;4.53;;;2.92;;
34767;SDS011;21755;43.608;1.236;2024-02-15T11:53:58;5.07;;;2.80;;
34767;SDS011;21755;43.608;1.236;2024-02-15T11:59:08;3.22;;;2.03;;
34767;SDS011;21755;43.608;1.236;2024-02-15T12:01:43;3.20;;;2.17;;
34767;SDS011;21755;43.608;1.236;2024-02-15T12:04:29;6.63;;;2.45;;
34767;SDS011;21755;43.608;1.236;2024-02-15T12:07:14;6.85;;;2.72;;
34767;SDS011;21755;43.608;1.236;2024-02-15T12:09:59;3.25;;;2.10;;
34767;SDS011;21755;43.608;1.236;2024-02-15T12:12:50;4.38;;;2.08;;
34767;SDS011;21755;43.608;1.236;2024-02-15T12:15:35;7.05;;;2.80;;
34767;SDS011;21755;43.608;1.236;2024-02-15T12:18:20;7.60;;;2.45;;
34767;SDS011;21755;43.608;1.236;2024-02-15T12:21:07;6.90;;;3.05;;
34767;SDS011;21755;43.608;1.236;2024-02-15T12:23:35;4.35;;;2.33;;
34767;SDS011;21755;43.608;1.236;2024-02-15T12:26:03;4.68;;;2.60;;
34767;SDS011;21755;43.608;1.236;2024-02-15T12:28:30;2.88;;;1.98;;
34767;SDS011;21755;43.608;1.236;2024-02-15T12:30:56;9.27;;;2.80;;
34767;SDS011;21755;43.608;1.236;2024-02-15T12:33:22;6.68;;;2.30;;
34767;SDS011;21755;43.608;1.236;2024-02-15T12:35:49;4.75;;;2.20;;
34767;SDS011;21755;43.608;1.236;2024-02-15T12:38:17;3.15;;;2.33;;
34767;SDS011;21755;43.608;1.236;2024-02-15T12:40:43;4.53;;;2.40;;
34767;SDS011;21755;43.608;1.236;2024-02-15T12:43:10;5.43;;;2.25;;
34767;SDS011;21755;43.608;1.236;2024-02-15T12:45:40;2.40;;;1.52;;
34767;SDS011;21755;43.608;1.236;2024-02-15T12:48:07;4.15;;;1.98;;
34767;SDS011;21755;43.608;1.236;2024-02-15T12:50:34;4.50;;;2.20;;
34767;SDS011;21755;43.608;1.236;2024-02-15T12:53:00;4.38;;;2.30;;
34767;SDS011;21755;43.608;1.236;2024-02-15T12:55:37;2.88;;;1.98;;
34767;SDS011;21755;43.608;1.236;2024-02-15T12:58:12;3.03;;;1.98;;
34767;SDS011;21755;43.608;1.236;2024-02-15T13:00:40;3.20;;;1.92;;
34767;SDS011;21755;43.608;1.236;2024-02-15T13:03:09;5.13;;;2.05;;
34767;SDS011;21755;43.608;1.236;2024-02-15T13:05:35;3.90;;;1.92;;
34767;SDS011;21755;43.608;1.236;2024-02-15T13:08:02;3.85;;;2.25;;
34767;SDS011;21755;43.608;1.236;2024-02-15T13:10:34;5.30;;;1.90;;
34767;SDS011;21755;43.608;1.236;2024-02-15T13:13:01;4.18;;;1.85;;
34767;SDS011;21755;43.608;1.236;2024-02-15T13:15:27;4.05;;;1.70;;
34767;SDS011;21755;43.608;1.236;2024-02-15T13:17:58;4.38;;;1.77;;
34767;SDS011;21755;43.608;1.236;2024-02-15T13:20:24;2.97;;;1.55;;
34767;SDS011;21755;43.608;1.236;2024-02-15T13:23:01;2.83;;;1.77;;
34767;SDS011;21755;43.608;1.236;2024-02-15T13:25:41;4.57;;;2.15;;
34767;SDS011;21755;43.608;1.236;2024-02-15T13:28:08;3.63;;;1.95;;
34767;SDS011;21755;43.608;1.236;2024-02-15T13:30:38;4.43;;;2.33;;
34767;SDS011;21755;43.608;1.236;2024-02-15T13:33:04;6.07;;;1.95;;
34767;SDS011;21755;43.608;1.236;2024-02-15T13:35:31;2.67;;;2.10;;
34767;SDS011;21755;43.608;1.236;2024-02-15T13:37:57;6.45;;;2.00;;
34767;SDS011;21755;43.608;1.236;2024-02-15T13:40:24;5.32;;;2.10;;
34767;SDS011;21755;43.608;1.236;2024-02-15T13:42:52;5.53;;;2.42;;
34767;SDS011;21755;43.608;1.236;2024-02-15T13:45:28;6.78;;;2.58;;
34767;SDS011;21755;43.608;1.236;2024-02-15T13:48:05;3.95;;;2.05;;
34767;SDS011;21755;43.608;1.236;2024-02-15T13:50:35;10.23;;;2.00;;
34767;SDS011;21755;43.608;1.236;2024-02-15T13:53:03;4.35;;;2.20;;
34767;SDS011;21755;43.608;1.236;2024-02-15T13:55:29;7.32;;;2.38;;
34767;SDS011;21755;43.608;1.236;2024-02-15T13:57:56;3.85;;;2.00;;
34767;SDS011;21755;43.608;1.236;2024-02-15T14:00:22;3.35;;;2.00;;
34767;SDS011;21755;43.608;1.236;2024-02-15T14:02:58;5.97;;;2.20;;
34767;SDS011;21755;43.608;1.236;2024-02-15T14:05:26;2.42;;;1.90;;
34767;SDS011;21755;43.608;1.236;2024-02-15T14:07:57;4.95;;;2.25;;
34767;SDS011;21755;43.608;1.236;2024-02-15T14:10:23;5.43;;;1.80;;
34767;SDS011;21755;43.608;1.236;2024-02-15T14:12:51;6.72;;;2.00;;
34767;SDS011;21755;43.608;1.236;2024-02-15T14:15:20;2.90;;;1.70;;
34767;SDS011;21755;43.608;1.236;2024-02-15T14:17:46;5.78;;;1.98;;
34767;SDS011;21755;43.608;1.236;2024-02-15T14:20:13;3.85;;;1.70;;
34767;SDS011;21755;43.608;1.236;2024-02-15T14:22:41;3.05;;;1.35;;
34767;SDS011;21755;43.608;1.236;2024-02-15T14:25:14;4.05;;;1.38;;
34767;SDS011;21755;43.608;1.236;2024-02-15T14:27:40;6.22;;;1.73;;
34767;SDS011;21755;43.608;1.236;2024-02-15T14:30:08;3.58;;;1.60;;
34767;SDS011;21755;43.608;1.236;2024-02-15T14:32:57;3.40;;;1.67;;
34767;SDS011;21755;43.608;1.236;2024-02-15T14:35:27;9.20;;;1.85;;
34767;SDS011;21755;43.608;1.236;2024-02-15T14:37:55;4.60;;;1.75;;
34767;SDS011;21755;43.608;1.236;2024-02-15T14:40:27;6.50;;;1.73;;
34767;SDS011;21755;43.608;1.236;2024-02-15T14:42:53;5.03;;;1.73;;
34767;SDS011;21755;43.608;1.236;2024-02-15T14:45:19;3.28;;;1.73;;
34767;SDS011;21755;43.608;1.236;2024-02-15T14:47:47;2.22;;;1.73;;
34767;SDS011;21755;43.608;1.236;2024-02-15T14:50:13;3.97;;;1.90;;
34767;SDS011;21755;43.608;1.236;2024-02-15T14:52:39;5.38;;;1.85;;
34767;SDS011;21755;43.608;1.236;2024-02-15T14:55:06;2.80;;;1.33;;
34767;SDS011;21755;43.608;1.236;2024-02-15T14:57:33;3.70;;;1.88;;
34767;SDS011;21755;43.608;1.236;2024-02-15T15:00:01;4.53;;;2.20;;
34767;SDS011;21755;43.608;1.236;2024-02-15T15:02:29;3.13;;;1.60;;
34767;SDS011;21755;43.608;1.236;2024-02-15T15:04:55;6.38;;;1.70;;
34767;SDS011;21755;43.608;1.236;2024-02-15T15:07:40;5.95;;;1.75;;
34767;SDS011;21755;43.608;1.236;2024-02-15T15:10:24;3.33;;;1.85;;
34767;SDS011;21755;43.608;1.236;2024-02-15T15:13:08;4.35;;;1.80;;
34767;SDS011;21755;43.608;1.236;2024-02-15T15:15:35;2.47;;;1.50;;